Time;durP1;ratioP1;P1;durP2;ratioP2;P2;SDS_P1;SDS_P2;PMS_P1;PMS_P2;Temp;Humidity;BMP_temperature;BMP_pressure;BME280_temperature;BME280_humidity;BME280_pressure;Samples;Min_cycle;Max_cycle;Signal;HPM_P1;HPM_P2
2023/08/01 00:02:20;;;;;;;6.93;3.35;;;20.30;99.90;;;;;;5071425;28;20035;-74
2023/08/01 00:04:46;;;;;;;6.07;3.40;;;20.10;99.90;;;;;;5066547;28;20017;-70
2023/08/01 00:07:12;;;;;;;7.78;3.70;;;20.20;99.90;;;;;;5059840;28;20142;-73
2023/08/01 00:09:37;;;;;;;4.93;3.45;;;20.20;99.90;;;;;;5068308;28;20052;-72
2023/08/01 00:12:03;;;;;;;6.75;3.63;;;20.10;99.90;;;;;;5072308;28;20067;-72
2023/08/01 00:14:29;;;;;;;6.45;3.28;;;20.10;99.90;;;;;;5067828;28;20056;-71
2023/08/01 00:16:54;;;;;;;7.50;3.38;;;20.10;99.90;;;;;;5071417;28;20391;-72
2023/08/01 00:19:20;;;;;;;6.28;3.10;;;20.00;99.90;;;;;;5066684;28;20055;-73
2023/08/01 00:21:46;;;;;;;9.70;3.58;;;20.00;99.90;;;;;;5063452;28;20055;-73
2023/08/01 00:24:12;;;;;;;6.35;3.80;;;19.90;99.90;;;;;;5066734;28;20045;-73
2023/08/01 00:26:38;;;;;;;6.43;3.55;;;19.90;99.90;;;;;;5072513;28;20032;-74
2023/08/01 00:29:03;;;;;;;6.88;3.28;;;19.90;99.90;;;;;;5066706;28;20584;-73
2023/08/01 00:31:29;;;;;;;6.28;3.40;;;19.80;99.90;;;;;;5070891;28;20071;-73
2023/08/01 00:33:55;;;;;;;4.75;3.53;;;19.70;99.90;;;;;;5066608;28;20048;-72
2023/08/01 00:36:20;;;;;;;10.73;4.35;;;19.70;99.90;;;;;;5072576;28;20020;-74
2023/08/01 00:38:46;;;;;;;5.70;3.67;;;19.70;99.90;;;;;;5067014;28;20021;-73
2023/08/01 00:41:12;;;;;;;10.07;3.80;;;19.60;99.90;;;;;;5070899;28;20031;-73
2023/08/01 00:43:38;;;;;;;7.22;3.15;;;19.60;99.90;;;;;;5076439;28;20409;-74
2023/08/01 00:46:05;;;;;;;5.72;3.80;;;19.50;99.90;;;;;;5076886;28;20514;-74
2023/08/01 00:48:31;;;;;;;6.32;3.25;;;19.40;99.90;;;;;;5067881;28;20108;-72
2023/08/01 00:51:03;;;;;;;4.28;3.63;;;19.40;99.90;;;;;;5064387;28;20645;-74
2023/08/01 00:53:30;;;;;;;6.28;4.07;;;19.40;99.90;;;;;;5046091;28;20017;-75
2023/08/01 00:55:56;;;;;;;7.43;4.43;;;19.30;99.90;;;;;;5058275;28;20025;-73
2023/08/01 00:58:22;;;;;;;7.50;3.80;;;19.30;99.90;;;;;;5058885;28;20016;-72
2023/08/01 01:00:48;;;;;;;6.72;3.65;;;19.20;99.90;;;;;;5073894;28;20078;-73
2023/08/01 01:03:15;;;;;;;7.63;4.43;;;19.20;99.90;;;;;;5071180;28;20032;-73
2023/08/01 01:05:52;;;;;;;7.70;4.63;;;19.10;99.90;;;;;;5073747;28;20122;-73
2023/08/01 01:08:18;;;;;;;6.00;4.03;;;19.10;99.90;;;;;;5073754;28;20024;-74
2023/08/01 01:10:44;;;;;;;7.72;4.13;;;19.00;99.90;;;;;;5071987;28;20101;-72
2023/08/01 01:13:10;;;;;;;7.60;4.35;;;19.00;99.90;;;;;;5073185;28;20099;-74
2023/08/01 01:15:35;;;;;;;7.82;4.95;;;18.90;99.90;;;;;;5070862;28;20091;-72
2023/08/01 01:18:01;;;;;;;8.15;4.57;;;18.90;99.90;;;;;;5065630;28;20540;-73
2023/08/01 01:20:39;;;;;;;9.60;4.50;;;18.90;99.90;;;;;;5063971;28;20108;-73
2023/08/01 01:23:05;;;;;;;6.13;4.68;;;18.80;99.90;;;;;;5065669;28;20111;-73
2023/08/01 01:25:33;;;;;;;15.43;5.20;;;18.80;99.90;;;;;;5063153;28;20044;-73
2023/08/01 01:28:01;;;;;;;8.50;4.60;;;18.70;99.90;;;;;;5072954;28;20102;-73
2023/08/01 01:30:28;;;;;;;8.40;4.63;;;18.70;99.90;;;;;;5069162;28;20043;-73
2023/08/01 01:32:54;;;;;;;7.88;5.13;;;18.60;99.90;;;;;;5073574;28;20017;-74
2023/08/01 01:35:20;;;;;;;10.13;5.63;;;18.60;99.90;;;;;;5067693;28;20406;-74
2023/08/01 01:37:45;;;;;;;9.27;5.53;;;18.60;99.90;;;;;;5067016;28;20103;-73
2023/08/01 01:40:11;;;;;;;9.90;5.68;;;18.60;99.90;;;;;;5064605;28;20029;-73
2023/08/01 01:42:37;;;;;;;8.82;5.15;;;18.70;99.90;;;;;;5066350;28;20020;-73
2023/08/01 01:45:03;;;;;;;11.27;4.70;;;18.70;99.90;;;;;;5063413;28;20032;-73
2023/08/01 01:47:29;;;;;;;9.40;5.30;;;18.80;99.90;;;;;;5066051;28;20025;-73
2023/08/01 01:49:55;;;;;;;7.43;5.10;;;18.80;99.90;;;;;;5064648;28;20036;-74
2023/08/01 01:52:20;;;;;;;11.18;5.60;;;18.80;99.90;;;;;;5070237;28;20078;-73
2023/08/01 01:54:46;;;;;;;9.60;4.93;;;18.90;99.90;;;;;;5071887;28;20025;-74
2023/08/01 01:57:11;;;;;;;8.98;5.43;;;18.90;99.90;;;;;;5061023;28;20108;-73
2023/08/01 01:59:37;;;;;;;5.38;4.75;;;18.90;99.90;;;;;;5060181;28;20044;-73
2023/08/01 02:02:03;;;;;;;7.68;4.63;;;18.90;99.90;;;;;;5066275;28;20120;-73
2023/08/01 02:04:30;;;;;;;10.15;4.82;;;18.90;99.90;;;;;;5063928;28;20047;-73
2023/08/01 02:06:55;;;;;;;8.02;4.97;;;18.90;99.90;;;;;;5063946;28;20029;-73
2023/08/01 02:09:21;;;;;;;7.20;4.68;;;18.90;99.90;;;;;;5063586;28;20024;-74
2023/08/01 02:11:47;;;;;;;6.50;4.72;;;18.90;99.90;;;;;;5058029;28;20055;-74
2023/08/01 02:14:13;;;;;;;10.85;5.32;;;18.90;99.90;;;;;;5042028;28;20026;-73
2023/08/01 02:16:39;;;;;;;6.95;4.63;;;18.80;99.90;;;;;;5049637;28;20018;-73
2023/08/01 02:19:05;;;;;;;6.80;4.55;;;18.80;99.90;;;;;;5056920;28;20378;-74
2023/08/01 02:21:30;;;;;;;9.00;5.10;;;18.80;99.90;;;;;;5057287;28;20032;-72
2023/08/01 02:23:56;;;;;;;10.60;4.82;;;18.80;99.90;;;;;;5057911;28;20155;-72
2023/08/01 02:26:23;;;;;;;5.80;4.60;;;18.90;99.90;;;;;;5062956;28;20104;-73
2023/08/01 02:28:49;;;;;;;10.25;5.57;;;18.80;99.90;;;;;;5065937;28;20394;-72
2023/08/01 02:31:16;;;;;;;7.50;4.63;;;18.80;99.90;;;;;;5055860;28;20029;-72
2023/08/01 02:33:41;;;;;;;12.80;4.85;;;18.80;99.90;;;;;;5065748;28;20068;-73
2023/08/01 02:36:07;;;;;;;8.18;5.32;;;18.80;99.90;;;;;;5068213;28;20035;-72
2023/08/01 02:38:33;;;;;;;6.57;4.50;;;18.70;99.90;;;;;;5065224;28;20397;-73
2023/08/01 02:40:58;;;;;;;9.07;4.85;;;18.70;99.90;;;;;;5069734;28;20504;-72
2023/08/01 02:43:24;;;;;;;6.95;4.97;;;18.70;99.90;;;;;;5065419;28;20088;-72
2023/08/01 02:45:50;;;;;;;8.70;5.10;;;18.60;99.90;;;;;;5068482;28;20034;-73
2023/08/01 02:48:16;;;;;;;7.90;5.10;;;18.60;99.90;;;;;;5065503;28;20119;-74
2023/08/01 02:50:42;;;;;;;8.05;5.60;;;18.60;99.90;;;;;;5067365;28;20115;-73
2023/08/01 02:53:07;;;;;;;7.75;5.10;;;18.70;99.90;;;;;;5065721;28;20093;-73
2023/08/01 02:55:33;;;;;;;8.70;5.80;;;18.70;99.90;;;;;;5068458;28;20468;-73
2023/08/01 02:57:59;;;;;;;6.80;4.68;;;18.80;99.90;;;;;;5065713;28;20020;-72
2023/08/01 03:00:25;;;;;;;8.20;5.35;;;18.80;99.90;;;;;;5067596;28;20036;-73
2023/08/01 03:02:51;;;;;;;10.13;5.78;;;18.80;99.90;;;;;;5065302;28;20047;-72
2023/08/01 03:05:16;;;;;;;10.02;5.53;;;18.90;99.90;;;;;;5067222;28;20024;-73
2023/08/01 03:07:42;;;;;;;9.13;5.68;;;18.90;99.90;;;;;;5063344;28;20025;-73
2023/08/01 03:10:09;;;;;;;5.72;4.72;;;18.90;99.90;;;;;;5067497;28;20020;-73
2023/08/01 03:12:35;;;;;;;7.93;5.50;;;18.90;99.90;;;;;;5064964;28;20107;-73
2023/08/01 03:15:01;;;;;;;7.43;5.07;;;19.00;99.90;;;;;;5068489;28;20431;-73
2023/08/01 03:17:26;;;;;;;8.02;5.18;;;19.00;99.90;;;;;;5065583;28;20013;-73
2023/08/01 03:19:52;;;;;;;9.73;5.93;;;19.00;99.90;;;;;;5066777;28;20068;-72
2023/08/01 03:22:18;;;;;;;6.97;5.88;;;19.00;99.90;;;;;;5058153;28;20032;-73
2023/08/01 03:24:44;;;;;;;8.05;4.90;;;18.90;99.90;;;;;;5069205;28;20384;-72
2023/08/01 03:27:09;;;;;;;8.68;5.57;;;18.80;99.90;;;;;;5065901;28;20022;-72
2023/08/01 03:29:35;;;;;;;6.55;5.82;;;18.80;99.90;;;;;;5062882;28;20491;-73
2023/08/01 03:32:01;;;;;;;8.30;5.85;;;18.80;99.90;;;;;;5061890;28;20029;-73
2023/08/01 03:34:26;;;;;;;9.95;5.57;;;18.80;99.90;;;;;;5069015;28;20143;-73
2023/08/01 03:36:52;;;;;;;12.02;6.65;;;18.80;99.90;;;;;;5065692;28;20036;-73
2023/08/01 03:39:18;;;;;;;10.02;6.50;;;18.80;99.90;;;;;;5067756;28;20083;-72
2023/08/01 03:41:44;;;;;;;10.95;6.07;;;18.80;99.90;;;;;;5065176;28;20057;-74
2023/08/01 03:44:09;;;;;;;9.65;6.38;;;18.80;99.90;;;;;;5068457;28;20059;-73
2023/08/01 03:46:35;;;;;;;7.00;6.00;;;18.70;99.90;;;;;;5058373;28;20025;-73
2023/08/01 03:49:01;;;;;;;8.43;6.13;;;18.70;99.90;;;;;;5072104;28;20074;-73
2023/08/01 03:51:26;;;;;;;8.30;5.90;;;18.80;99.90;;;;;;5067481;28;20052;-72
2023/08/01 03:53:52;;;;;;;9.65;6.07;;;18.80;99.90;;;;;;5072280;28;20020;-73
2023/08/01 03:56:17;;;;;;;12.38;6.13;;;18.80;99.90;;;;;;5069190;28;20025;-73
2023/08/01 03:58:43;;;;;;;7.85;5.95;;;18.90;99.90;;;;;;5069961;28;20119;-74
2023/08/01 04:01:09;;;;;;;10.38;5.53;;;18.80;99.90;;;;;;5067491;28;20113;-72
2023/08/01 04:03:34;;;;;;;8.57;5.85;;;18.80;99.90;;;;;;5067575;28;20035;-73
2023/08/01 04:06:00;;;;;;;9.13;6.50;;;18.80;99.90;;;;;;5068104;28;20052;-73
2023/08/01 04:08:26;;;;;;;8.45;5.80;;;18.80;99.90;;;;;;5068710;28;20051;-72
2023/08/01 04:10:51;;;;;;;7.80;6.13;;;18.70;99.90;;;;;;5068433;28;20059;-73
2023/08/01 04:13:17;;;;;;;9.57;5.30;;;18.70;99.90;;;;;;5068604;28;20084;-73
2023/08/01 04:15:43;;;;;;;12.65;6.00;;;18.70;99.90;;;;;;5067725;28;20385;-72
2023/08/01 04:18:08;;;;;;;8.82;6.30;;;18.70;99.90;;;;;;5067839;28;20028;-73
2023/08/01 04:20:34;;;;;;;7.30;5.60;;;18.80;99.90;;;;;;5060524;28;20093;-73
2023/08/01 04:22:59;;;;;;;6.40;4.78;;;18.80;99.90;;;;;;5065288;28;20873;-73
2023/08/01 04:25:26;;;;;;;8.73;5.65;;;18.80;99.90;;;;;;5067900;28;20036;-73
2023/08/01 04:27:53;;;;;;;8.63;5.82;;;18.80;99.90;;;;;;5066587;28;20048;-74
2023/08/01 04:30:18;;;;;;;8.60;5.50;;;18.70;99.90;;;;;;5067134;28;20048;-73
2023/08/01 04:32:44;;;;;;;8.15;5.55;;;18.70;99.90;;;;;;5067783;28;20016;-73
2023/08/01 04:35:10;;;;;;;7.05;5.28;;;18.70;99.90;;;;;;5067356;28;20057;-72
2023/08/01 04:37:35;;;;;;;8.93;5.40;;;18.70;99.90;;;;;;5067695;28;20400;-73
2023/08/01 04:40:01;;;;;;;7.40;6.22;;;18.70;99.90;;;;;;5067765;28;20043;-72
2023/08/01 04:42:28;;;;;;;9.02;6.53;;;18.60;99.90;;;;;;5068347;28;20021;-73
2023/08/01 04:44:54;;;;;;;8.75;6.03;;;18.60;99.90;;;;;;5067963;28;20408;-73
2023/08/01 04:47:21;;;;;;;7.88;5.60;;;18.60;99.90;;;;;;5068511;28;20031;-73
2023/08/01 04:49:46;;;;;;;9.68;6.28;;;18.60;99.90;;;;;;5068364;28;20017;-73
2023/08/01 04:52:12;;;;;;;6.45;5.07;;;18.60;99.90;;;;;;5068831;28;20082;-73
2023/08/01 04:54:38;;;;;;;5.75;5.10;;;18.50;99.90;;;;;;5068041;28;20020;-73
2023/08/01 04:57:04;;;;;;;8.38;6.80;;;18.50;99.90;;;;;;5068588;28;20025;-73
2023/08/01 04:59:30;;;;;;;9.52;6.03;;;18.50;99.90;;;;;;5067289;28;20025;-72
2023/08/01 05:01:55;;;;;;;8.60;5.88;;;18.50;99.90;;;;;;5067432;28;20035;-72
2023/08/01 05:04:21;;;;;;;9.05;5.97;;;18.60;99.90;;;;;;5068226;28;20487;-73
2023/08/01 05:06:46;;;;;;;8.65;6.15;;;18.50;99.90;;;;;;5068331;28;20029;-72
2023/08/01 05:09:12;;;;;;;8.63;6.03;;;18.50;99.90;;;;;;5068222;28;20072;-73
2023/08/01 05:11:38;;;;;;;9.02;6.38;;;18.50;99.90;;;;;;5067958;28;20029;-72
2023/08/01 05:14:03;;;;;;;11.55;5.47;;;18.50;99.90;;;;;;5068384;28;20020;-73
2023/08/01 05:16:29;;;;;;;11.32;6.13;;;18.40;99.90;;;;;;5067594;28;20032;-72
2023/08/01 05:18:55;;;;;;;10.65;6.35;;;18.30;99.90;;;;;;5067746;28;20027;-73
2023/08/01 05:21:20;;;;;;;9.48;6.07;;;18.20;99.90;;;;;;5057910;28;20439;-73
2023/08/01 05:23:46;;;;;;;10.63;5.88;;;18.20;99.90;;;;;;5068332;28;20052;-73
2023/08/01 05:26:11;;;;;;;9.52;6.13;;;18.20;99.90;;;;;;5067973;28;20028;-72
2023/08/01 05:28:37;;;;;;;9.70;6.75;;;18.10;99.90;;;;;;5067775;28;20128;-72
2023/08/01 05:31:03;;;;;;;8.75;6.47;;;18.10;99.90;;;;;;5056515;28;20078;-73
2023/08/01 05:33:29;;;;;;;9.68;6.28;;;18.10;99.90;;;;;;5058564;28;20025;-73
2023/08/01 05:35:54;;;;;;;8.80;6.25;;;18.10;99.90;;;;;;5067658;28;20013;-73
2023/08/01 05:38:20;;;;;;;11.70;6.00;;;18.20;99.90;;;;;;5067549;28;20040;-73
2023/08/01 05:40:46;;;;;;;12.68;6.18;;;18.20;99.90;;;;;;5066931;28;20055;-73
2023/08/01 05:43:11;;;;;;;7.82;5.45;;;18.20;99.90;;;;;;5067684;28;20033;-73
2023/08/01 05:45:37;;;;;;;7.43;6.30;;;18.30;99.90;;;;;;5053545;28;20052;-72
2023/08/01 05:48:03;;;;;;;10.48;6.38;;;18.40;99.90;;;;;;5066756;28;20029;-73
2023/08/01 05:50:29;;;;;;;10.20;6.57;;;18.50;99.90;;;;;;5065185;28;20016;-73
2023/08/01 05:52:54;;;;;;;10.63;6.57;;;18.60;99.90;;;;;;5067956;28;20025;-72
2023/08/01 05:55:20;;;;;;;9.50;5.90;;;18.70;99.90;;;;;;5065822;28;20029;-73
2023/08/01 05:57:48;;;;;;;8.63;6.00;;;18.80;99.90;;;;;;5065340;28;20066;-72
2023/08/01 06:00:15;;;;;;;10.02;5.47;;;18.90;99.90;;;;;;5074419;28;20021;-75
2023/08/01 06:02:40;;;;;;;9.30;6.07;;;19.00;99.90;;;;;;5070982;28;20024;-74
2023/08/01 06:05:06;;;;;;;9.35;5.80;;;19.00;99.90;;;;;;5066867;28;20096;-74
2023/08/01 06:07:32;;;;;;;7.72;5.90;;;19.10;99.90;;;;;;5073188;28;20024;-73
2023/08/01 06:09:58;;;;;;;10.90;5.47;;;19.20;99.90;;;;;;5075298;28;20028;-73
2023/08/01 06:12:23;;;;;;;7.88;5.78;;;19.20;99.90;;;;;;5073753;28;20035;-74
2023/08/01 06:14:49;;;;;;;6.65;5.07;;;19.20;99.90;;;;;;5074385;28;20016;-74
2023/08/01 06:17:15;;;;;;;5.85;4.97;;;19.20;99.90;;;;;;5068276;28;20033;-74
2023/08/01 06:19:41;;;;;;;11.07;4.95;;;19.30;99.90;;;;;;5067922;28;20091;-73
2023/08/01 06:22:06;;;;;;;9.55;5.57;;;19.40;99.90;;;;;;5058890;28;20037;-74
2023/08/01 06:24:32;;;;;;;7.40;5.05;;;19.60;99.90;;;;;;5068761;28;20052;-74
2023/08/01 06:26:58;;;;;;;9.50;5.22;;;19.80;99.90;;;;;;5066691;28;20041;-75
2023/08/01 06:29:24;;;;;;;8.18;4.88;;;20.00;99.90;;;;;;5068562;28;20080;-74
2023/08/01 06:31:50;;;;;;;8.40;5.18;;;20.00;99.90;;;;;;5067991;28;20024;-74
2023/08/01 06:34:16;;;;;;;8.75;4.47;;;20.10;99.90;;;;;;5056884;28;20021;-75
2023/08/01 06:36:41;;;;;;;7.63;4.63;;;20.20;99.90;;;;;;5058248;28;20076;-76
2023/08/01 06:39:08;;;;;;;5.57;4.80;;;20.30;99.90;;;;;;5055209;28;20455;-75
2023/08/01 06:41:33;;;;;;;7.47;4.82;;;20.30;99.90;;;;;;5056261;28;20086;-75
2023/08/01 06:43:59;;;;;;;7.53;4.65;;;20.30;99.90;;;;;;5055552;28;20039;-75
2023/08/01 06:46:24;;;;;;;8.50;4.70;;;20.20;99.90;;;;;;5057226;28;20099;-74
2023/08/01 06:48:50;;;;;;;9.07;4.72;;;20.20;99.90;;;;;;5056483;28;20021;-76
2023/08/01 06:51:16;;;;;;;7.13;4.90;;;20.10;99.90;;;;;;5057839;28;20082;-75
2023/08/01 06:53:42;;;;;;;6.88;4.15;;;20.10;99.90;;;;;;5056816;28;20021;-76
2023/08/01 06:56:08;;;;;;;9.55;4.80;;;20.20;99.90;;;;;;5058284;28;20361;-74
2023/08/01 06:58:33;;;;;;;11.23;5.55;;;20.40;99.90;;;;;;5056744;28;20033;-74
2023/08/01 07:00:59;;;;;;;5.88;4.70;;;20.40;99.90;;;;;;5054761;28;20040;-74
2023/08/01 07:03:25;;;;;;;7.30;4.10;;;20.50;99.90;;;;;;5056398;28;20043;-74
2023/08/01 07:05:50;;;;;;;6.32;3.78;;;20.70;99.90;;;;;;5058409;28;20033;-75
2023/08/01 07:08:16;;;;;;;8.75;3.95;;;20.90;99.90;;;;;;5063501;28;20021;-74
2023/08/01 07:10:42;;;;;;;8.20;4.65;;;20.90;99.90;;;;;;5059657;28;20077;-74
2023/08/01 07:13:07;;;;;;;6.57;4.38;;;20.80;99.90;;;;;;5055390;28;20493;-74
2023/08/01 07:15:33;;;;;;;6.30;4.28;;;21.00;99.90;;;;;;5056782;28;20020;-75
2023/08/01 07:17:59;;;;;;;6.35;3.90;;;21.40;99.90;;;;;;5056193;28;20103;-75
2023/08/01 07:20:25;;;;;;;6.78;3.70;;;21.70;99.90;;;;;;5064289;28;20479;-71
2023/08/01 07:22:50;;;;;;;6.88;3.80;;;21.70;99.90;;;;;;5075906;28;20044;-71
2023/08/01 07:25:17;;;;;;;7.72;4.45;;;21.70;99.90;;;;;;5076219;28;20499;-72
2023/08/01 07:27:43;;;;;;;5.95;3.42;;;21.60;99.90;;;;;;5077756;28;20027;-74
2023/08/01 07:30:10;;;;;;;8.32;3.83;;;21.60;99.90;;;;;;5075205;28;20458;-71
2023/08/01 07:32:37;;;;;;;5.10;3.58;;;21.40;99.90;;;;;;5077212;28;20017;-71
2023/08/01 07:35:03;;;;;;;9.43;4.32;;;21.30;99.90;;;;;;5073224;28;20020;-72
2023/08/01 07:37:29;;;;;;;5.18;3.40;;;21.60;99.90;;;;;;5063316;28;20017;-71
2023/08/01 07:39:56;;;;;;;7.65;4.00;;;21.80;99.90;;;;;;5066735;28;20481;-71
2023/08/01 07:42:23;;;;;;;8.50;3.28;;;22.10;99.90;;;;;;5052357;28;20650;-70
2023/08/01 07:44:48;;;;;;;7.13;3.67;;;22.20;99.90;;;;;;5051204;28;20031;-70
2023/08/01 07:47:14;;;;;;;6.70;3.70;;;22.10;99.90;;;;;;5057855;28;20350;-70
2023/08/01 07:49:39;;;;;;;8.38;3.88;;;22.00;99.90;;;;;;5058667;28;20456;-70
2023/08/01 07:52:05;;;;;;;6.50;4.15;;;22.00;99.90;;;;;;5055815;28;20029;-71
2023/08/01 07:54:31;;;;;;;8.20;4.20;;;22.00;99.90;;;;;;5060828;28;20036;-70
2023/08/01 07:56:57;;;;;;;7.28;3.30;;;21.80;99.90;;;;;;5062997;28;20040;-70
2023/08/01 07:59:22;;;;;;;8.50;3.85;;;21.70;99.90;;;;;;5058800;28;20029;-72
2023/08/01 08:01:48;;;;;;;6.95;3.97;;;21.40;99.90;;;;;;5056586;28;20029;-72
2023/08/01 08:04:14;;;;;;;8.25;4.70;;;21.20;99.90;;;;;;5059217;28;20053;-72
2023/08/01 08:06:40;;;;;;;6.63;4.20;;;21.00;99.90;;;;;;5058304;28;20051;-72
2023/08/01 08:09:06;;;;;;;10.30;4.32;;;21.00;99.90;;;;;;5057411;28;20033;-74
2023/08/01 08:11:33;;;;;;;7.00;3.72;;;20.80;99.90;;;;;;5062165;28;20489;-72
2023/08/01 08:13:59;;;;;;;7.20;4.30;;;20.90;99.90;;;;;;5057963;28;20013;-72
2023/08/01 08:16:25;;;;;;;11.13;4.10;;;20.90;99.90;;;;;;5058867;28;20021;-72
2023/08/01 08:18:51;;;;;;;6.00;4.05;;;21.00;99.90;;;;;;5061376;28;20017;-72
2023/08/01 08:21:16;;;;;;;5.70;4.00;;;21.10;99.90;;;;;;5057725;28;20840;-74
2023/08/01 08:23:42;;;;;;;5.78;3.72;;;21.30;99.90;;;;;;5059542;28;20056;-73
2023/08/01 08:26:07;;;;;;;9.77;3.88;;;21.60;99.90;;;;;;5057212;28;20033;-72
2023/08/01 08:28:34;;;;;;;8.35;4.00;;;22.00;99.90;;;;;;5057314;28;20033;-72
2023/08/01 08:31:02;;;;;;;6.40;3.53;;;22.20;99.90;;;;;;5061979;28;20030;-72
2023/08/01 08:33:27;;;;;;;11.73;3.55;;;22.30;99.90;;;;;;5055204;28;20412;-73
2023/08/01 08:35:53;;;;;;;6.43;3.70;;;22.40;99.90;;;;;;5058068;28;20017;-73
2023/08/01 08:38:19;;;;;;;7.10;4.07;;;22.30;99.90;;;;;;5055613;28;20860;-73
2023/08/01 08:40:54;;;;;;;6.05;3.53;;;22.30;99.90;;;;;;5056608;28;20551;-73
2023/08/01 08:43:20;;;;;;;6.95;3.45;;;22.20;99.90;;;;;;5059089;28;20031;-74
2023/08/01 08:45:48;;;;;;;5.85;3.88;;;22.10;99.90;;;;;;5059211;28;20049;-73
2023/08/01 08:48:19;;;;;;;7.25;3.92;;;22.10;99.90;;;;;;5056058;28;20087;-72
2023/08/01 08:50:46;;;;;;;6.75;3.55;;;22.10;99.90;;;;;;5060272;28;20045;-74
2023/08/01 08:53:12;;;;;;;6.50;3.88;;;22.10;99.90;;;;;;5057815;28;20025;-74
2023/08/01 08:55:40;;;;;;;7.30;3.15;;;21.60;99.90;;;;;;5057123;28;20029;-72
2023/08/01 08:58:06;;;;;;;7.97;3.42;;;21.20;99.90;;;;;;5059069;28;20021;-73
2023/08/01 09:00:33;;;;;;;5.90;3.50;;;20.70;99.90;;;;;;5059282;28;20021;-74
2023/08/01 09:02:58;;;;;;;5.18;3.88;;;20.30;99.90;;;;;;5054258;28;20044;-76
2023/08/01 09:05:32;;;;;;;5.13;3.40;;;20.00;99.90;;;;;;5061282;28;20021;-74
2023/08/01 09:08:02;;;;;;;7.05;3.60;;;19.80;99.90;;;;;;5057162;28;20033;-74
2023/08/01 09:10:28;;;;;;;5.35;3.25;;;19.90;99.90;;;;;;5057243;28;20029;-75
2023/08/01 09:12:53;;;;;;;5.00;3.33;;;20.10;99.90;;;;;;5056822;28;20028;-73
2023/08/01 09:15:19;;;;;;;6.03;3.60;;;20.30;99.90;;;;;;5058075;28;20021;-73
2023/08/01 09:17:52;;;;;;;7.43;3.63;;;20.60;99.90;;;;;;5057857;28;20017;-72
2023/08/01 09:20:18;;;;;;;6.43;3.63;;;20.90;99.90;;;;;;5058351;28;20021;-72
2023/08/01 09:22:44;;;;;;;5.78;4.20;;;21.20;99.90;;;;;;5057099;28;20045;-74
2023/08/01 09:25:11;;;;;;;8.45;3.50;;;21.60;99.90;;;;;;5055693;28;20477;-72
2023/08/01 09:27:37;;;;;;;6.32;3.75;;;22.10;99.90;;;;;;5062544;28;20028;-72
2023/08/01 09:30:11;;;;;;;5.43;3.45;;;22.30;99.90;;;;;;5057592;28;20051;-73
2023/08/01 09:32:37;;;;;;;7.28;3.38;;;22.50;99.90;;;;;;5054658;28;20017;-72
2023/08/01 09:35:03;;;;;;;10.15;3.45;;;22.50;99.90;;;;;;5060533;28;21420;-73
2023/08/01 09:37:42;;;;;;;5.20;3.45;;;22.50;99.90;;;;;;5058480;28;20025;-72
2023/08/01 09:40:09;;;;;;;11.93;4.97;;;22.60;99.90;;;;;;5058283;28;20013;-74
2023/08/01 09:42:43;;;;;;;8.63;3.85;;;22.70;99.90;;;;;;5056681;28;20021;-73
2023/08/01 09:45:18;;;;;;;5.95;3.05;;;22.60;99.90;;;;;;5056369;28;20447;-74
2023/08/01 09:47:45;;;;;;;11.77;3.38;;;22.50;99.90;;;;;;5055835;28;20021;-73
2023/08/01 09:50:13;;;;;;;4.55;3.05;;;22.50;99.90;;;;;;5053914;28;20023;-74
2023/08/01 09:52:39;;;;;;;5.30;3.22;;;22.50;99.90;;;;;;5055833;28;20028;-75
2023/08/01 09:55:05;;;;;;;7.22;3.60;;;22.50;99.90;;;;;;5055655;28;20032;-73
2023/08/01 09:57:31;;;;;;;5.72;2.78;;;22.50;99.90;;;;;;5054730;28;20025;-76
2023/08/01 09:59:58;;;;;;;7.22;2.90;;;22.60;99.90;;;;;;5059963;28;20473;-75
2023/08/01 10:02:26;;;;;;;8.13;2.85;;;22.70;99.90;;;;;;5051057;28;20047;-73
2023/08/01 10:04:54;;;;;;;13.10;3.80;;;22.90;99.90;;;;;;5048431;28;20051;-72
2023/08/01 10:07:24;;;;;;;7.32;2.78;;;23.20;99.90;;;;;;5051305;28;20025;-73
2023/08/01 10:09:50;;;;;;;5.07;2.40;;;23.40;99.90;;;;;;5052282;28;20021;-72
2023/08/01 10:12:18;;;;;;;4.53;2.40;;;23.50;99.90;;;;;;5053496;28;20119;-72
2023/08/01 10:14:44;;;;;;;2.85;1.75;;;23.60;99.90;;;;;;5057941;28;20044;-74
2023/08/01 10:17:11;;;;;;;4.53;2.45;;;23.80;99.90;;;;;;5059787;28;20020;-72
2023/08/01 10:19:38;;;;;;;3.58;2.00;;;24.00;99.90;;;;;;5055954;28;20017;-72
2023/08/01 10:22:06;;;;;;;4.38;1.80;;;24.10;99.90;;;;;;5055957;28;20419;-71
2023/08/01 10:24:32;;;;;;;3.22;1.77;;;24.20;99.90;;;;;;5053555;28;20056;-74
2023/08/01 10:27:08;;;;;;;2.65;1.50;;;24.30;99.90;;;;;;5059605;28;20029;-71
2023/08/01 10:29:35;;;;;;;3.30;1.75;;;24.40;99.90;;;;;;5054310;28;20073;-73
2023/08/01 10:32:01;;;;;;;4.75;2.10;;;24.60;99.90;;;;;;5049854;28;20037;-74
2023/08/01 10:34:27;;;;;;;1.63;1.23;;;24.80;99.90;;;;;;5050322;28;20024;-73
2023/08/01 10:36:56;;;;;;;4.30;2.17;;;25.00;99.90;;;;;;5051439;28;20728;-73
2023/08/01 10:39:24;;;;;;;3.47;1.70;;;25.20;99.90;;;;;;5047772;28;20107;-72
2023/08/01 10:42:01;;;;;;;4.93;1.58;;;25.30;99.90;;;;;;5049416;28;20042;-73
2023/08/01 10:44:28;;;;;;;4.18;1.83;;;25.20;99.90;;;;;;5052823;28;20029;-74
2023/08/01 10:47:00;;;;;;;3.05;1.83;;;25.10;99.90;;;;;;5054407;28;20024;-72
2023/08/01 10:49:33;;;;;;;3.00;1.60;;;25.10;99.90;;;;;;5056012;28;20063;-74
2023/08/01 10:51:59;;;;;;;3.40;1.92;;;25.20;99.90;;;;;;5051471;28;20084;-74
2023/08/01 10:54:26;;;;;;;6.90;1.98;;;25.30;99.90;;;;;;5048619;28;21482;-75
2023/08/01 10:56:53;;;;;;;2.88;1.70;;;25.50;99.90;;;;;;5050767;28;20048;-74
2023/08/01 10:59:20;;;;;;;3.67;1.63;;;25.60;99.90;;;;;;5054021;28;20028;-74
2023/08/01 11:01:58;;;;;;;8.25;2.53;;;25.50;99.90;;;;;;5054217;28;20021;-73
2023/08/01 11:04:24;;;;;;;2.67;1.52;;;25.10;99.90;;;;;;5052094;28;20074;-73
2023/08/01 11:06:52;;;;;;;4.18;1.98;;;24.70;99.90;;;;;;5049458;28;20108;-74
2023/08/01 11:09:26;;;;;;;3.72;1.40;;;24.50;99.90;;;;;;5050936;28;20064;-73
2023/08/01 11:11:59;;;;;;;1.98;1.40;;;24.50;99.90;;;;;;5060986;28;20082;-75
2023/08/01 11:14:29;;;;;;;4.32;1.25;;;24.30;99.90;;;;;;5047606;28;20036;-74
2023/08/01 11:16:59;;;;;;;2.63;1.63;;;24.30;99.90;;;;;;5052828;28;20021;-72
2023/08/01 11:19:29;;;;;;;3.80;1.40;;;24.30;99.90;;;;;;5056369;28;20036;-76
2023/08/01 11:21:56;;;;;;;2.17;1.35;;;24.30;99.90;;;;;;5051783;28;20081;-72
2023/08/01 11:24:23;;;;;;;3.15;1.58;;;24.40;99.90;;;;;;5050654;28;20052;-74
2023/08/01 11:26:50;;;;;;;2.72;1.42;;;24.60;99.90;;;;;;5052609;28;20025;-72
2023/08/01 11:29:17;;;;;;;3.08;1.30;;;24.50;99.90;;;;;;5054370;28;20020;-72
2023/08/01 11:31:59;;;;;;;4.03;1.50;;;24.50;99.90;;;;;;5055212;28;20050;-72
2023/08/01 11:34:26;;;;;;;4.15;1.73;;;24.70;99.90;;;;;;5051587;28;20032;-71
2023/08/01 11:36:52;;;;;;;3.33;1.50;;;24.60;99.90;;;;;;5052580;28;20017;-74
2023/08/01 11:39:18;;;;;;;2.47;1.70;;;24.50;99.90;;;;;;5053565;28;20509;-75
2023/08/01 11:41:45;;;;;;;3.65;1.58;;;24.50;99.90;;;;;;5055232;28;20485;-73
2023/08/01 11:44:11;;;;;;;2.25;1.30;;;24.40;99.90;;;;;;5056983;28;20077;-72
2023/08/01 11:46:38;;;;;;;2.45;1.67;;;24.30;99.90;;;;;;5056475;28;20025;-72
2023/08/01 11:49:06;;;;;;;3.50;1.45;;;24.30;99.90;;;;;;5052810;28;20223;-73
2023/08/01 11:51:39;;;;;;;2.60;1.52;;;24.20;99.90;;;;;;5057326;28;20025;-75
2023/08/01 11:54:05;;;;;;;4.47;2.03;;;24.50;99.90;;;;;;5053608;28;20095;-74
2023/08/01 11:56:31;;;;;;;3.92;1.83;;;24.80;99.90;;;;;;5053961;28;20029;-74
2023/08/01 11:58:57;;;;;;;3.45;1.73;;;25.10;99.90;;;;;;5059090;28;20035;-74
2023/08/01 12:01:23;;;;;;;2.67;1.75;;;25.50;99.90;;;;;;5056361;28;20033;-74
2023/08/01 12:03:50;;;;;;;3.80;1.98;;;25.90;99.90;;;;;;5052051;28;20404;-73
2023/08/01 12:06:18;;;;;;;3.15;1.63;;;25.80;99.90;;;;;;5056865;28;20108;-74
2023/08/01 12:08:45;;;;;;;2.28;1.30;;;25.40;99.90;;;;;;5060657;28;20024;-73
2023/08/01 12:11:38;;;;;;;3.67;1.33;;;25.10;99.90;;;;;;5056158;28;20021;-75
2023/08/01 12:14:09;;;;;;;4.22;1.67;;;24.70;99.90;;;;;;5047869;28;20033;-73
2023/08/01 12:16:36;;;;;;;2.85;1.88;;;24.50;99.90;;;;;;5059361;28;20562;-74
2023/08/01 12:19:02;;;;;;;2.95;1.58;;;24.30;99.90;;;;;;5060737;28;20499;-75
2023/08/01 12:21:33;;;;;;;4.85;2.15;;;23.90;99.90;;;;;;5059694;28;20074;-73
2023/08/01 12:23:59;;;;;;;3.65;2.15;;;23.40;99.90;;;;;;5057741;28;20061;-75
2023/08/01 12:26:25;;;;;;;2.72;1.80;;;23.10;99.90;;;;;;5057874;28;20032;-74
2023/08/01 12:28:50;;;;;;;3.05;1.48;;;23.00;99.90;;;;;;5056604;28;20091;-71
2023/08/01 12:31:18;;;;;;;3.15;1.63;;;22.90;99.90;;;;;;5061432;28;20079;-75
2023/08/01 12:33:44;;;;;;;4.00;1.50;;;23.10;99.90;;;;;;5055295;28;20096;-73
2023/08/01 12:36:10;;;;;;;4.50;1.83;;;23.30;99.90;;;;;;5053393;28;20025;-72
2023/08/01 12:38:35;;;;;;;3.42;1.80;;;23.40;99.90;;;;;;5059513;28;20029;-74
2023/08/01 12:41:01;;;;;;;2.67;1.65;;;23.40;99.90;;;;;;5059871;28;20086;-73
2023/08/01 12:43:27;;;;;;;6.10;1.50;;;23.60;99.90;;;;;;5055905;28;20104;-72